sensor_id;sensor_type;location;lat;lon;timestamp;P1;durP1;ratioP1;P2;durP2;ratioP2
22476;SDS011;65006;51.698;-0.292;2023-03-01T00:00:22;1.70;;;1.17;;
22476;SDS011;65006;51.698;-0.292;2023-03-01T00:02:48;1.15;;;1.05;;
22476;SDS011;65006;51.698;-0.292;2023-03-01T00:05:14;5.53;;;1.13;;
22476;SDS011;65006;51.698;-0.292;2023-03-01T00:07:40;1.20;;;0.90;;
22476;SDS011;65006;51.698;-0.292;2023-03-01T00:10:06;1.70;;;1.15;;
22476;SDS011;65006;51.698;-0.292;2023-03-01T00:12:32;2.13;;;1.20;;
22476;SDS011;65006;51.698;-0.292;2023-03-01T00:14:58;2.47;;;1.30;;
22476;SDS011;65006;51.698;-0.292;2023-03-01T00:17:24;1.20;;;1.08;;
22476;SDS011;65006;51.698;-0.292;2023-03-01T00:19:50;3.42;;;1.35;;
22476;SDS011;65006;51.698;-0.292;2023-03-01T00:22:16;1.27;;;1.17;;
22476;SDS011;65006;51.698;-0.292;2023-03-01T00:24:42;1.65;;;1.25;;
22476;SDS011;65006;51.698;-0.292;2023-03-01T00:27:08;1.80;;;1.30;;
22476;SDS011;65006;51.698;-0.292;2023-03-01T00:29:34;1.13;;;0.90;;
22476;SDS011;65006;51.698;-0.292;2023-03-01T00:32:00;2.55;;;1.30;;
22476;SDS011;65006;51.698;-0.292;2023-03-01T00:34:26;1.23;;;0.93;;
22476;SDS011;65006;51.698;-0.292;2023-03-01T00:36:52;2.08;;;1.30;;
22476;SDS011;65006;51.698;-0.292;2023-03-01T00:39:18;2.85;;;0.90;;
22476;SDS011;65006;51.698;-0.292;2023-03-01T00:41:44;1.35;;;0.80;;
22476;SDS011;65006;51.698;-0.292;2023-03-01T00:44:11;4.30;;;1.33;;
22476;SDS011;65006;51.698;-0.292;2023-03-01T00:46:37;1.52;;;1.10;;
22476;SDS011;65006;51.698;-0.292;2023-03-01T00:49:03;2.20;;;1.00;;
22476;SDS011;65006;51.698;-0.292;2023-03-01T00:51:29;1.20;;;1.00;;
22476;SDS011;65006;51.698;-0.292;2023-03-01T00:53:56;0.70;;;0.70;;
22476;SDS011;65006;51.698;-0.292;2023-03-01T00:56:23;1.35;;;1.00;;
22476;SDS011;65006;51.698;-0.292;2023-03-01T00:58:49;3.05;;;1.00;;
22476;SDS011;65006;51.698;-0.292;2023-03-01T01:06:53;1.38;;;1.20;;
22476;SDS011;65006;51.698;-0.292;2023-03-01T01:09:01;1.45;;;0.73;;
22476;SDS011;65006;51.698;-0.292;2023-03-01T01:11:28;2.95;;;0.93;;
22476;SDS011;65006;51.698;-0.292;2023-03-01T01:13:55;1.83;;;1.10;;
22476;SDS011;65006;51.698;-0.292;2023-03-01T01:18:47;1.60;;;0.80;;
22476;SDS011;65006;51.698;-0.292;2023-03-01T01:21:14;0.75;;;0.73;;
22476;SDS011;65006;51.698;-0.292;2023-03-01T01:23:41;0.85;;;0.80;;
22476;SDS011;65006;51.698;-0.292;2023-03-01T01:26:12;1.20;;;0.77;;
22476;SDS011;65006;51.698;-0.292;2023-03-01T01:28:38;1.45;;;0.85;;
22476;SDS011;65006;51.698;-0.292;2023-03-01T01:31:05;1.27;;;0.80;;
22476;SDS011;65006;51.698;-0.292;2023-03-01T01:33:31;4.07;;;0.82;;
22476;SDS011;65006;51.698;-0.292;2023-03-01T01:35:57;1.98;;;0.90;;
22476;SDS011;65006;51.698;-0.292;2023-03-01T01:38:23;4.22;;;0.80;;
22476;SDS011;65006;51.698;-0.292;2023-03-01T01:40:49;1.67;;;1.27;;
22476;SDS011;65006;51.698;-0.292;2023-03-01T01:43:23;0.93;;;0.82;;
22476;SDS011;65006;51.698;-0.292;2023-03-01T01:45:50;0.77;;;0.60;;
22476;SDS011;65006;51.698;-0.292;2023-03-01T01:50:42;1.45;;;0.70;;
22476;SDS011;65006;51.698;-0.292;2023-03-01T01:53:11;1.13;;;0.90;;
22476;SDS011;65006;51.698;-0.292;2023-03-01T01:55:39;0.88;;;0.88;;
22476;SDS011;65006;51.698;-0.292;2023-03-01T01:58:07;0.85;;;0.73;;
22476;SDS011;65006;51.698;-0.292;2023-03-01T02:00:37;6.40;;;1.08;;
22476;SDS011;65006;51.698;-0.292;2023-03-01T02:03:11;1.25;;;0.90;;
22476;SDS011;65006;51.698;-0.292;2023-03-01T02:05:46;1.45;;;1.02;;
22476;SDS011;65006;51.698;-0.292;2023-03-01T02:08:13;1.50;;;1.23;;
22476;SDS011;65006;51.698;-0.292;2023-03-01T02:10:40;0.98;;;0.85;;
22476;SDS011;65006;51.698;-0.292;2023-03-01T02:15:33;1.17;;;1.00;;
22476;SDS011;65006;51.698;-0.292;2023-03-01T02:18:00;1.40;;;1.10;;
22476;SDS011;65006;51.698;-0.292;2023-03-01T02:20:29;1.25;;;1.02;;
22476;SDS011;65006;51.698;-0.292;2023-03-01T02:22:58;1.98;;;1.25;;
22476;SDS011;65006;51.698;-0.292;2023-03-01T02:30:43;0.98;;;0.85;;
22476;SDS011;65006;51.698;-0.292;2023-03-01T02:33:28;1.40;;;1.20;;
22476;SDS011;65006;51.698;-0.292;2023-03-01T02:35:57;4.05;;;1.35;;
22476;SDS011;65006;51.698;-0.292;2023-03-01T02:38:24;1.20;;;1.00;;
22476;SDS011;65006;51.698;-0.292;2023-03-01T02:40:50;1.25;;;1.13;;
22476;SDS011;65006;51.698;-0.292;2023-03-01T02:43:18;1.88;;;1.30;;
22476;SDS011;65006;51.698;-0.292;2023-03-01T02:45:50;1.45;;;1.20;;
22476;SDS011;65006;51.698;-0.292;2023-03-01T02:48:18;1.98;;;1.30;;
22476;SDS011;65006;51.698;-0.292;2023-03-01T02:50:46;1.85;;;1.30;;
22476;SDS011;65006;51.698;-0.292;2023-03-01T02:55:59;1.70;;;1.05;;
22476;SDS011;65006;51.698;-0.292;2023-03-01T02:58:26;1.95;;;1.17;;
22476;SDS011;65006;51.698;-0.292;2023-03-01T03:00:52;1.77;;;1.20;;
22476;SDS011;65006;51.698;-0.292;2023-03-01T03:03:19;3.10;;;1.48;;
22476;SDS011;65006;51.698;-0.292;2023-03-01T03:05:45;2.00;;;1.25;;
22476;SDS011;65006;51.698;-0.292;2023-03-01T03:08:12;2.20;;;1.50;;
22476;SDS011;65006;51.698;-0.292;2023-03-01T03:10:41;2.47;;;1.00;;
22476;SDS011;65006;51.698;-0.292;2023-03-01T03:13:12;4.32;;;1.02;;
22476;SDS011;65006;51.698;-0.292;2023-03-01T03:15:39;1.67;;;1.40;;
22476;SDS011;65006;51.698;-0.292;2023-03-01T03:18:10;2.00;;;1.45;;
22476;SDS011;65006;51.698;-0.292;2023-03-01T03:20:36;3.47;;;1.38;;
22476;SDS011;65006;51.698;-0.292;2023-03-01T03:23:03;1.40;;;1.10;;
22476;SDS011;65006;51.698;-0.292;2023-03-01T03:25:29;3.88;;;1.38;;
22476;SDS011;65006;51.698;-0.292;2023-03-01T03:27:55;1.33;;;1.00;;
22476;SDS011;65006;51.698;-0.292;2023-03-01T03:30:22;1.75;;;1.27;;
22476;SDS011;65006;51.698;-0.292;2023-03-01T03:32:49;1.83;;;1.23;;
22476;SDS011;65006;51.698;-0.292;2023-03-01T03:35:18;0.82;;;0.82;;
22476;SDS011;65006;51.698;-0.292;2023-03-01T03:37:44;1.90;;;1.20;;
22476;SDS011;65006;51.698;-0.292;2023-03-01T03:40:30;4.00;;;0.90;;
22476;SDS011;65006;51.698;-0.292;2023-03-01T03:42:56;1.23;;;0.90;;
22476;SDS011;65006;51.698;-0.292;2023-03-01T03:45:24;1.63;;;0.85;;
22476;SDS011;65006;51.698;-0.292;2023-03-01T03:47:50;0.93;;;0.80;;
22476;SDS011;65006;51.698;-0.292;2023-03-01T03:50:16;1.45;;;0.90;;
22476;SDS011;65006;51.698;-0.292;2023-03-01T03:52:42;1.13;;;0.85;;
22476;SDS011;65006;51.698;-0.292;2023-03-01T03:55:09;2.53;;;0.80;;
22476;SDS011;65006;51.698;-0.292;2023-03-01T03:57:36;2.47;;;1.00;;
22476;SDS011;65006;51.698;-0.292;2023-03-01T04:00:03;1.95;;;1.02;;
22476;SDS011;65006;51.698;-0.292;2023-03-01T04:02:30;7.07;;;0.93;;
22476;SDS011;65006;51.698;-0.292;2023-03-01T04:04:56;3.08;;;1.45;;
22476;SDS011;65006;51.698;-0.292;2023-03-01T04:07:22;1.25;;;0.85;;
22476;SDS011;65006;51.698;-0.292;2023-03-01T04:09:51;1.30;;;0.80;;
22476;SDS011;65006;51.698;-0.292;2023-03-01T04:12:17;1.83;;;1.10;;
22476;SDS011;65006;51.698;-0.292;2023-03-01T04:14:47;1.00;;;0.85;;
22476;SDS011;65006;51.698;-0.292;2023-03-01T04:17:13;4.13;;;0.88;;
22476;SDS011;65006;51.698;-0.292;2023-03-01T04:19:39;1.23;;;0.98;;
22476;SDS011;65006;51.698;-0.292;2023-03-01T04:22:09;3.28;;;1.23;;
22476;SDS011;65006;51.698;-0.292;2023-03-01T04:24:36;1.02;;;0.93;;
22476;SDS011;65006;51.698;-0.292;2023-03-01T04:27:02;2.28;;;1.10;;
22476;SDS011;65006;51.698;-0.292;2023-03-01T04:29:28;2.33;;;1.30;;
22476;SDS011;65006;51.698;-0.292;2023-03-01T04:31:54;2.63;;;1.00;;
22476;SDS011;65006;51.698;-0.292;2023-03-01T04:34:20;1.58;;;0.88;;
22476;SDS011;65006;51.698;-0.292;2023-03-01T04:36:46;1.45;;;0.98;;
22476;SDS011;65006;51.698;-0.292;2023-03-01T04:39:12;1.63;;;1.08;;
22476;SDS011;65006;51.698;-0.292;2023-03-01T04:41:39;1.17;;;1.00;;
22476;SDS011;65006;51.698;-0.292;2023-03-01T04:44:05;1.60;;;0.77;;
22476;SDS011;65006;51.698;-0.292;2023-03-01T04:46:32;3.67;;;1.40;;
22476;SDS011;65006;51.698;-0.292;2023-03-01T04:48:58;3.45;;;1.08;;
22476;SDS011;65006;51.698;-0.292;2023-03-01T04:51:24;3.75;;;1.00;;
22476;SDS011;65006;51.698;-0.292;2023-03-01T04:53:50;2.47;;;1.10;;
22476;SDS011;65006;51.698;-0.292;2023-03-01T04:56:16;3.97;;;1.25;;
22476;SDS011;65006;51.698;-0.292;2023-03-01T04:58:45;1.70;;;0.90;;
22476;SDS011;65006;51.698;-0.292;2023-03-01T05:01:15;1.95;;;0.90;;
22476;SDS011;65006;51.698;-0.292;2023-03-01T05:03:42;3.20;;;1.30;;
22476;SDS011;65006;51.698;-0.292;2023-03-01T05:06:08;2.15;;;1.02;;
22476;SDS011;65006;51.698;-0.292;2023-03-01T05:08:35;2.28;;;0.95;;
22476;SDS011;65006;51.698;-0.292;2023-03-01T05:11:04;1.17;;;0.85;;
22476;SDS011;65006;51.698;-0.292;2023-03-01T05:13:35;4.07;;;1.27;;
22476;SDS011;65006;51.698;-0.292;2023-03-01T05:16:02;5.85;;;1.73;;
22476;SDS011;65006;51.698;-0.292;2023-03-01T05:18:29;4.57;;;1.05;;
22476;SDS011;65006;51.698;-0.292;2023-03-01T05:21:00;1.23;;;0.93;;
22476;SDS011;65006;51.698;-0.292;2023-03-01T05:23:29;1.90;;;1.20;;
22476;SDS011;65006;51.698;-0.292;2023-03-01T05:25:57;1.38;;;1.00;;
22476;SDS011;65006;51.698;-0.292;2023-03-01T05:28:24;3.53;;;1.23;;
22476;SDS011;65006;51.698;-0.292;2023-03-01T05:30:50;1.38;;;0.93;;
22476;SDS011;65006;51.698;-0.292;2023-03-01T05:33:16;1.63;;;0.93;;
22476;SDS011;65006;51.698;-0.292;2023-03-01T05:35:43;1.40;;;1.02;;
22476;SDS011;65006;51.698;-0.292;2023-03-01T05:40:39;1.27;;;0.70;;
22476;SDS011;65006;51.698;-0.292;2023-03-01T05:43:05;1.75;;;1.20;;
22476;SDS011;65006;51.698;-0.292;2023-03-01T05:47:58;4.45;;;1.13;;
22476;SDS011;65006;51.698;-0.292;2023-03-01T05:50:25;3.75;;;1.13;;
22476;SDS011;65006;51.698;-0.292;2023-03-01T05:52:57;3.15;;;1.40;;
22476;SDS011;65006;51.698;-0.292;2023-03-01T05:55:24;4.63;;;1.10;;
22476;SDS011;65006;51.698;-0.292;2023-03-01T05:57:50;2.70;;;1.20;;
22476;SDS011;65006;51.698;-0.292;2023-03-01T06:00:17;1.90;;;1.13;;
22476;SDS011;65006;51.698;-0.292;2023-03-01T06:02:44;4.25;;;0.90;;
22476;SDS011;65006;51.698;-0.292;2023-03-01T06:05:10;2.10;;;0.90;;
22476;SDS011;65006;51.698;-0.292;2023-03-01T06:07:36;3.75;;;1.05;;
22476;SDS011;65006;51.698;-0.292;2023-03-01T06:10:03;3.15;;;1.17;;
22476;SDS011;65006;51.698;-0.292;2023-03-01T06:14:55;6.65;;;1.35;;
22476;SDS011;65006;51.698;-0.292;2023-03-01T06:17:21;1.98;;;0.98;;
22476;SDS011;65006;51.698;-0.292;2023-03-01T06:19:47;6.40;;;1.55;;
22476;SDS011;65006;51.698;-0.292;2023-03-01T06:22:13;6.97;;;1.50;;
22476;SDS011;65006;51.698;-0.292;2023-03-01T06:24:39;5.55;;;1.55;;
22476;SDS011;65006;51.698;-0.292;2023-03-01T06:27:05;4.05;;;1.27;;
22476;SDS011;65006;51.698;-0.292;2023-03-01T06:29:31;2.78;;;1.67;;
22476;SDS011;65006;51.698;-0.292;2023-03-01T06:31:57;4.10;;;1.55;;
22476;SDS011;65006;51.698;-0.292;2023-03-01T06:34:23;3.25;;;1.50;;
22476;SDS011;65006;51.698;-0.292;2023-03-01T06:36:49;2.03;;;1.40;;
22476;SDS011;65006;51.698;-0.292;2023-03-01T06:39:15;5.38;;;1.77;;
22476;SDS011;65006;51.698;-0.292;2023-03-01T06:41:42;4.43;;;1.73;;
22476;SDS011;65006;51.698;-0.292;2023-03-01T06:44:08;5.18;;;1.55;;
22476;SDS011;65006;51.698;-0.292;2023-03-01T06:46:34;2.13;;;1.10;;
22476;SDS011;65006;51.698;-0.292;2023-03-01T06:51:29;2.78;;;1.45;;
22476;SDS011;65006;51.698;-0.292;2023-03-01T06:53:55;5.47;;;1.92;;
22476;SDS011;65006;51.698;-0.292;2023-03-01T06:58:48;2.95;;;1.60;;
22476;SDS011;65006;51.698;-0.292;2023-03-01T07:01:14;6.15;;;1.58;;
22476;SDS011;65006;51.698;-0.292;2023-03-01T07:03:40;3.35;;;1.90;;
22476;SDS011;65006;51.698;-0.292;2023-03-01T07:06:09;2.33;;;1.30;;
22476;SDS011;65006;51.698;-0.292;2023-03-01T07:08:35;4.55;;;1.30;;
22476;SDS011;65006;51.698;-0.292;2023-03-01T07:11:01;2.13;;;1.23;;
22476;SDS011;65006;51.698;-0.292;2023-03-01T07:13:28;4.18;;;1.40;;
22476;SDS011;65006;51.698;-0.292;2023-03-01T07:15:54;4.55;;;1.50;;
22476;SDS011;65006;51.698;-0.292;2023-03-01T07:18:20;2.88;;;1.23;;
22476;SDS011;65006;51.698;-0.292;2023-03-01T07:20:46;3.17;;;1.83;;
22476;SDS011;65006;51.698;-0.292;2023-03-01T07:23:12;1.77;;;1.30;;
22476;SDS011;65006;51.698;-0.292;2023-03-01T07:25:38;8.75;;;1.50;;
22476;SDS011;65006;51.698;-0.292;2023-03-01T07:28:04;2.38;;;1.50;;
22476;SDS011;65006;51.698;-0.292;2023-03-01T07:30:30;2.85;;;1.38;;
22476;SDS011;65006;51.698;-0.292;2023-03-01T07:32:57;4.80;;;1.60;;
22476;SDS011;65006;51.698;-0.292;2023-03-01T07:35:27;4.13;;;1.20;;
22476;SDS011;65006;51.698;-0.292;2023-03-01T07:37:53;2.55;;;1.30;;
22476;SDS011;65006;51.698;-0.292;2023-03-01T07:40:19;3.47;;;1.50;;
22476;SDS011;65006;51.698;-0.292;2023-03-01T07:42:45;4.03;;;1.63;;
22476;SDS011;65006;51.698;-0.292;2023-03-01T07:45:11;5.78;;;1.52;;
22476;SDS011;65006;51.698;-0.292;2023-03-01T07:47:39;1.98;;;1.25;;
22476;SDS011;65006;51.698;-0.292;2023-03-01T07:50:05;5.72;;;1.40;;
22476;SDS011;65006;51.698;-0.292;2023-03-01T07:52:31;4.18;;;1.50;;
22476;SDS011;65006;51.698;-0.292;2023-03-01T07:54:57;2.33;;;1.55;;
22476;SDS011;65006;51.698;-0.292;2023-03-01T07:57:23;1.80;;;1.13;;
22476;SDS011;65006;51.698;-0.292;2023-03-01T07:59:49;4.28;;;2.13;;
22476;SDS011;65006;51.698;-0.292;2023-03-01T08:02:15;1.42;;;0.88;;
22476;SDS011;65006;51.698;-0.292;2023-03-01T08:04:41;2.97;;;0.90;;
22476;SDS011;65006;51.698;-0.292;2023-03-01T08:07:07;3.05;;;1.10;;
22476;SDS011;65006;51.698;-0.292;2023-03-01T08:09:35;1.70;;;0.98;;
22476;SDS011;65006;51.698;-0.292;2023-03-01T08:12:02;4.75;;;1.00;;
22476;SDS011;65006;51.698;-0.292;2023-03-01T08:14:29;1.98;;;1.00;;
22476;SDS011;65006;51.698;-0.292;2023-03-01T08:16:55;4.45;;;1.25;;
22476;SDS011;65006;51.698;-0.292;2023-03-01T08:19:22;5.85;;;1.33;;
22476;SDS011;65006;51.698;-0.292;2023-03-01T08:21:48;2.63;;;0.90;;
22476;SDS011;65006;51.698;-0.292;2023-03-01T08:24:14;5.75;;;1.40;;
22476;SDS011;65006;51.698;-0.292;2023-03-01T08:26:40;3.80;;;1.20;;
22476;SDS011;65006;51.698;-0.292;2023-03-01T08:29:06;2.45;;;1.38;;
22476;SDS011;65006;51.698;-0.292;2023-03-01T08:31:33;2.45;;;1.40;;
22476;SDS011;65006;51.698;-0.292;2023-03-01T08:34:04;4.85;;;1.38;;
22476;SDS011;65006;51.698;-0.292;2023-03-01T08:36:32;2.67;;;1.10;;
22476;SDS011;65006;51.698;-0.292;2023-03-01T08:38:58;5.05;;;1.23;;
22476;SDS011;65006;51.698;-0.292;2023-03-01T08:41:24;2.13;;;1.00;;
22476;SDS011;65006;51.698;-0.292;2023-03-01T08:43:50;2.35;;;1.23;;
22476;SDS011;65006;51.698;-0.292;2023-03-01T08:46:17;4.13;;;1.17;;
22476;SDS011;65006;51.698;-0.292;2023-03-01T08:48:43;1.80;;;1.17;;
22476;SDS011;65006;51.698;-0.292;2023-03-01T08:51:11;4.30;;;1.00;;
22476;SDS011;65006;51.698;-0.292;2023-03-01T08:53:38;4.65;;;0.85;;
22476;SDS011;65006;51.698;-0.292;2023-03-01T08:56:04;1.95;;;1.05;;
22476;SDS011;65006;51.698;-0.292;2023-03-01T08:58:30;1.20;;;0.70;;
22476;SDS011;65006;51.698;-0.292;2023-03-01T09:00:56;1.10;;;0.80;;
22476;SDS011;65006;51.698;-0.292;2023-03-01T09:03:23;2.42;;;0.95;;
22476;SDS011;65006;51.698;-0.292;2023-03-01T09:05:50;1.75;;;0.93;;
22476;SDS011;65006;51.698;-0.292;2023-03-01T09:10:42;1.80;;;1.00;;
22476;SDS011;65006;51.698;-0.292;2023-03-01T09:13:08;2.22;;;0.88;;
22476;SDS011;65006;51.698;-0.292;2023-03-01T09:15:36;1.33;;;1.00;;
22476;SDS011;65006;51.698;-0.292;2023-03-01T09:18:02;2.38;;;1.10;;
22476;SDS011;65006;51.698;-0.292;2023-03-01T09:20:28;3.63;;;1.05;;
22476;SDS011;65006;51.698;-0.292;2023-03-01T09:22:54;1.20;;;0.90;;
22476;SDS011;65006;51.698;-0.292;2023-03-01T09:25:20;1.60;;;1.00;;
22476;SDS011;65006;51.698;-0.292;2023-03-01T09:27:46;2.20;;;1.35;;
22476;SDS011;65006;51.698;-0.292;2023-03-01T09:30:12;0.82;;;0.70;;
22476;SDS011;65006;51.698;-0.292;2023-03-01T09:32:38;3.30;;;0.90;;
22476;SDS011;65006;51.698;-0.292;2023-03-01T09:35:07;1.23;;;0.80;;
22476;SDS011;65006;51.698;-0.292;2023-03-01T09:37:34;1.50;;;1.13;;
22476;SDS011;65006;51.698;-0.292;2023-03-01T09:42:27;1.83;;;0.82;;
22476;SDS011;65006;51.698;-0.292;2023-03-01T09:47:34;2.35;;;1.08;;
22476;SDS011;65006;51.698;-0.292;2023-03-01T09:54:56;1.95;;;0.95;;
22476;SDS011;65006;51.698;-0.292;2023-03-01T10:00:22;1.60;;;0.90;;
22476;SDS011;65006;51.698;-0.292;2023-03-01T10:02:56;1.60;;;0.95;;
22476;SDS011;65006;51.698;-0.292;2023-03-01T10:10:33;2.30;;;0.80;;
22476;SDS011;65006;51.698;-0.292;2023-03-01T10:13:03;2.13;;;1.02;;
22476;SDS011;65006;51.698;-0.292;2023-03-01T10:15:34;2.25;;;0.70;;
22476;SDS011;65006;51.698;-0.292;2023-03-01T10:18:03;2.78;;;1.17;;
22476;SDS011;65006;51.698;-0.292;2023-03-01T10:23:04;1.48;;;1.00;;
22476;SDS011;65006;51.698;-0.292;2023-03-01T10:30:50;2.20;;;0.75;;
22476;SDS011;65006;51.698;-0.292;2023-03-01T10:33:18;0.98;;;0.70;;
22476;SDS011;65006;51.698;-0.292;2023-03-01T10:35:45;0.93;;;0.80;;
22476;SDS011;65006;51.698;-0.292;2023-03-01T10:38:13;7.43;;;0.90;;
22476;SDS011;65006;51.698;-0.292;2023-03-01T10:40:56;2.40;;;0.75;;
22476;SDS011;65006;51.698;-0.292;2023-03-01T10:43:23;3.25;;;0.82;;
22476;SDS011;65006;51.698;-0.292;2023-03-01T10:45:49;2.15;;;0.82;;
22476;SDS011;65006;51.698;-0.292;2023-03-01T10:50:43;2.03;;;0.95;;
22476;SDS011;65006;51.698;-0.292;2023-03-01T10:53:23;1.20;;;0.77;;
22476;SDS011;65006;51.698;-0.292;2023-03-01T10:56:24;1.33;;;0.82;;
22476;SDS011;65006;51.698;-0.292;2023-03-01T11:01:25;1.08;;;0.88;;
22476;SDS011;65006;51.698;-0.292;2023-03-01T11:06:33;1.00;;;0.60;;
22476;SDS011;65006;51.698;-0.292;2023-03-01T11:11:44;2.05;;;0.68;;
22476;SDS011;65006;51.698;-0.292;2023-03-01T11:14:27;0.90;;;0.60;;
22476;SDS011;65006;51.698;-0.292;2023-03-01T11:17:02;1.08;;;0.75;;
22476;SDS011;65006;51.698;-0.292;2023-03-01T11:19:29;2.75;;;0.80;;
22476;SDS011;65006;51.698;-0.292;2023-03-01T11:22:16;1.38;;;0.95;;
22476;SDS011;65006;51.698;-0.292;2023-03-01T11:24:48;1.40;;;0.80;;
22476;SDS011;65006;51.698;-0.292;2023-03-01T11:27:19;2.80;;;0.65;;
22476;SDS011;65006;51.698;-0.292;2023-03-01T11:32:45;4.45;;;0.68;;
22476;SDS011;65006;51.698;-0.292;2023-03-01T11:35:15;4.00;;;1.00;;
22476;SDS011;65006;51.698;-0.292;2023-03-01T11:40:40;1.15;;;0.55;;
22476;SDS011;65006;51.698;-0.292;2023-03-01T11:45:46;4.10;;;0.70;;
22476;SDS011;65006;51.698;-0.292;2023-03-01T11:48:35;1.50;;;0.55;;
22476;SDS011;65006;51.698;-0.292;2023-03-01T11:51:05;1.13;;;0.63;;
22476;SDS011;65006;51.698;-0.292;2023-03-01T11:56:06;1.10;;;0.55;;
22476;SDS011;65006;51.698;-0.292;2023-03-01T12:01:29;5.40;;;0.68;;
22476;SDS011;65006;51.698;-0.292;2023-03-01T12:06:52;1.73;;;0.60;;
22476;SDS011;65006;51.698;-0.292;2023-03-01T12:20:34;0.80;;;0.50;;
22476;SDS011;65006;51.698;-0.292;2023-03-01T12:25:33;0.50;;;0.43;;
22476;SDS011;65006;51.698;-0.292;2023-03-01T12:51:17;1.63;;;0.77;;
22476;SDS011;65006;51.698;-0.292;2023-03-01T12:53:48;2.13;;;0.80;;
22476;SDS011;65006;51.698;-0.292;2023-03-01T12:56:24;1.05;;;0.82;;
22476;SDS011;65006;51.698;-0.292;2023-03-01T12:59:00;6.83;;;0.97;;
22476;SDS011;65006;51.698;-0.292;2023-03-01T13:06:37;1.88;;;0.95;;
22476;SDS011;65006;51.698;-0.292;2023-03-01T13:11:34;2.65;;;0.88;;
22476;SDS011;65006;51.698;-0.292;2023-03-01T13:16:48;4.20;;;0.88;;
22476;SDS011;65006;51.698;-0.292;2023-03-01T13:21:41;1.50;;;0.90;;
22476;SDS011;65006;51.698;-0.292;2023-03-01T13:32:19;3.40;;;1.00;;
22476;SDS011;65006;51.698;-0.292;2023-03-01T13:34:46;0.40;;;0.40;;
22476;SDS011;65006;51.698;-0.292;2023-03-01T13:37:20;0.63;;;0.60;;
22476;SDS011;65006;51.698;-0.292;2023-03-01T13:39:46;2.10;;;0.40;;
22476;SDS011;65006;51.698;-0.292;2023-03-01T13:44:54;1.38;;;0.70;;
22476;SDS011;65006;51.698;-0.292;2023-03-01T13:47:20;0.98;;;0.55;;
22476;SDS011;65006;51.698;-0.292;2023-03-01T13:49:47;0.95;;;0.50;;
22476;SDS011;65006;51.698;-0.292;2023-03-01T13:52:34;0.90;;;0.30;;
22476;SDS011;65006;51.698;-0.292;2023-03-01T13:55:01;1.08;;;0.47;;
22476;SDS011;65006;51.698;-0.292;2023-03-01T13:57:37;3.92;;;0.88;;
22476;SDS011;65006;51.698;-0.292;2023-03-01T14:00:24;2.08;;;0.63;;
22476;SDS011;65006;51.698;-0.292;2023-03-01T14:08:31;1.33;;;0.77;;
22476;SDS011;65006;51.698;-0.292;2023-03-01T14:11:00;3.30;;;0.60;;
22476;SDS011;65006;51.698;-0.292;2023-03-01T14:16:09;2.63;;;0.57;;
22476;SDS011;65006;51.698;-0.292;2023-03-01T14:21:07;1.00;;;0.70;;
22476;SDS011;65006;51.698;-0.292;2023-03-01T14:23:34;2.35;;;0.68;;
22476;SDS011;65006;51.698;-0.292;2023-03-01T14:26:01;0.82;;;0.50;;
22476;SDS011;65006;51.698;-0.292;2023-03-01T14:28:29;1.92;;;0.70;;
22476;SDS011;65006;51.698;-0.292;2023-03-01T14:31:00;0.90;;;0.60;;
22476;SDS011;65006;51.698;-0.292;2023-03-01T14:33:27;0.80;;;0.70;;
22476;SDS011;65006;51.698;-0.292;2023-03-01T14:35:58;6.07;;;1.08;;
22476;SDS011;65006;51.698;-0.292;2023-03-01T14:38:32;1.92;;;0.60;;
22476;SDS011;65006;51.698;-0.292;2023-03-01T14:41:00;1.05;;;0.60;;
22476;SDS011;65006;51.698;-0.292;2023-03-01T14:43:27;4.38;;;0.70;;
22476;SDS011;65006;51.698;-0.292;2023-03-01T14:45:54;0.77;;;0.50;;
22476;SDS011;65006;51.698;-0.292;2023-03-01T14:48:20;0.40;;;0.40;;
22476;SDS011;65006;51.698;-0.292;2023-03-01T14:50:47;0.65;;;0.40;;
22476;SDS011;65006;51.698;-0.292;2023-03-01T14:53:21;2.67;;;0.47;;
22476;SDS011;65006;51.698;-0.292;2023-03-01T14:55:50;0.30;;;0.30;;
22476;SDS011;65006;51.698;-0.292;2023-03-01T14:58:19;1.27;;;0.47;;
22476;SDS011;65006;51.698;-0.292;2023-03-01T15:01:03;1.27;;;0.40;;
22476;SDS011;65006;51.698;-0.292;2023-03-01T15:03:31;0.88;;;0.57;;
22476;SDS011;65006;51.698;-0.292;2023-03-01T15:05:59;0.43;;;0.40;;
22476;SDS011;65006;51.698;-0.292;2023-03-01T15:08:25;4.78;;;0.60;;
22476;SDS011;65006;51.698;-0.292;2023-03-01T15:13:29;0.40;;;0.40;;
22476;SDS011;65006;51.698;-0.292;2023-03-01T15:16:06;1.95;;;0.65;;
22476;SDS011;65006;51.698;-0.292;2023-03-01T15:18:32;1.85;;;0.40;;
22476;SDS011;65006;51.698;-0.292;2023-03-01T15:21:09;6.40;;;0.43;;
22476;SDS011;65006;51.698;-0.292;2023-03-01T15:23:36;0.93;;;0.52;;
22476;SDS011;65006;51.698;-0.292;2023-03-01T15:26:02;1.58;;;0.40;;
22476;SDS011;65006;51.698;-0.292;2023-03-01T15:28:37;2.33;;;0.40;;
22476;SDS011;65006;51.698;-0.292;2023-03-01T15:33:46;2.47;;;0.30;;
22476;SDS011;65006;51.698;-0.292;2023-03-01T15:36:29;2.03;;;0.40;;
22476;SDS011;65006;51.698;-0.292;2023-03-01T15:38:56;0.55;;;0.40;;
22476;SDS011;65006;51.698;-0.292;2023-03-01T15:41:27;2.47;;;0.40;;
22476;SDS011;65006;51.698;-0.292;2023-03-01T15:43:55;1.65;;;0.30;;
22476;SDS011;65006;51.698;-0.292;2023-03-01T15:48:55;0.85;;;0.50;;
22476;SDS011;65006;51.698;-0.292;2023-03-01T15:51:26;0.30;;;0.30;;
22476;SDS011;65006;51.698;-0.292;2023-03-01T15:53:54;1.10;;;0.30;;
22476;SDS011;65006;51.698;-0.292;2023-03-01T15:56:20;1.80;;;0.50;;
22476;SDS011;65006;51.698;-0.292;2023-03-01T15:58:46;0.90;;;0.52;;
22476;SDS011;65006;51.698;-0.292;2023-03-01T16:01:15;0.85;;;0.40;;
22476;SDS011;65006;51.698;-0.292;2023-03-01T16:03:44;1.30;;;0.50;;
22476;SDS011;65006;51.698;-0.292;2023-03-01T16:06:10;0.20;;;0.20;;
22476;SDS011;65006;51.698;-0.292;2023-03-01T16:08:38;2.65;;;0.70;;
22476;SDS011;65006;51.698;-0.292;2023-03-01T16:11:05;0.70;;;0.50;;
22476;SDS011;65006;51.698;-0.292;2023-03-01T16:13:36;1.10;;;0.50;;
22476;SDS011;65006;51.698;-0.292;2023-03-01T16:16:02;2.28;;;0.73;;
22476;SDS011;65006;51.698;-0.292;2023-03-01T16:18:29;1.38;;;0.70;;
22476;SDS011;65006;51.698;-0.292;2023-03-01T16:20:55;5.32;;;0.40;;
22476;SDS011;65006;51.698;-0.292;2023-03-01T16:23:21;0.47;;;0.40;;
22476;SDS011;65006;51.698;-0.292;2023-03-01T16:25:49;0.10;;;0.10;;
22476;SDS011;65006;51.698;-0.292;2023-03-01T16:28:16;0.52;;;0.30;;
22476;SDS011;65006;51.698;-0.292;2023-03-01T16:30:45;1.65;;;0.22;;
22476;SDS011;65006;51.698;-0.292;2023-03-01T16:33:12;0.57;;;0.40;;
22476;SDS011;65006;51.698;-0.292;2023-03-01T16:35:42;0.30;;;0.30;;
22476;SDS011;65006;51.698;-0.292;2023-03-01T16:38:09;0.88;;;0.40;;
22476;SDS011;65006;51.698;-0.292;2023-03-01T16:40:35;0.40;;;0.30;;
22476;SDS011;65006;51.698;-0.292;2023-03-01T16:43:01;0.95;;;0.57;;
22476;SDS011;65006;51.698;-0.292;2023-03-01T16:45:28;0.75;;;0.52;;
22476;SDS011;65006;51.698;-0.292;2023-03-01T16:47:58;1.65;;;0.80;;
22476;SDS011;65006;51.698;-0.292;2023-03-01T16:50:24;1.50;;;0.55;;
22476;SDS011;65006;51.698;-0.292;2023-03-01T16:52:50;1.67;;;0.73;;
22476;SDS011;65006;51.698;-0.292;2023-03-01T16:55:16;3.17;;;0.93;;
22476;SDS011;65006;51.698;-0.292;2023-03-01T16:57:42;0.88;;;0.50;;
22476;SDS011;65006;51.698;-0.292;2023-03-01T17:00:10;2.78;;;0.50;;
22476;SDS011;65006;51.698;-0.292;2023-03-01T17:02:37;1.20;;;0.55;;
22476;SDS011;65006;51.698;-0.292;2023-03-01T17:05:04;0.40;;;0.40;;
22476;SDS011;65006;51.698;-0.292;2023-03-01T17:07:31;3.03;;;0.60;;
22476;SDS011;65006;51.698;-0.292;2023-03-01T17:10:01;4.88;;;0.85;;
22476;SDS011;65006;51.698;-0.292;2023-03-01T17:12:27;0.30;;;0.30;;
22476;SDS011;65006;51.698;-0.292;2023-03-01T17:14:53;0.80;;;0.45;;
22476;SDS011;65006;51.698;-0.292;2023-03-01T17:17:19;2.88;;;0.40;;
22476;SDS011;65006;51.698;-0.292;2023-03-01T17:19:45;0.80;;;0.40;;
22476;SDS011;65006;51.698;-0.292;2023-03-01T17:22:11;1.52;;;0.60;;
22476;SDS011;65006;51.698;-0.292;2023-03-01T17:24:41;0.52;;;0.47;;